createdAt,value
2023-01-31T00:00:16.442Z,21.00
2023-01-31T00:05:15.429Z,15.25
2023-01-31T00:10:14.958Z,12.48
2023-01-31T00:15:16.436Z,16.15
2023-01-31T00:20:19.321Z,14.95
2023-01-31T00:25:24.562Z,18.10
2023-01-31T00:30:28.542Z,17.45
2023-01-31T00:35:33.544Z,12.48
2023-01-31T00:40:33.110Z,13.43
2023-01-31T00:45:30.656Z,12.93
2023-01-31T00:50:31.353Z,13.07
2023-01-31T00:55:32.805Z,16.52
2023-01-31T01:00:30.758Z,10.20
2023-01-31T01:05:27.237Z,11.48
2023-01-31T01:10:24.961Z,13.80
2023-01-31T01:15:26.025Z,14.30
2023-01-31T01:20:23.604Z,11.55
2023-01-31T01:25:20.488Z,11.52
2023-01-31T01:35:18.447Z,7.65
2023-01-31T01:40:16.408Z,6.85
2023-01-31T01:45:23.191Z,10.68
2023-01-31T01:50:30.205Z,7.97
2023-01-31T01:55:31.767Z,10.13
2023-01-31T02:00:30.000Z,12.40
2023-01-31T02:05:31.476Z,14.68
2023-01-31T02:10:36.522Z,19.35
2023-01-31T02:15:33.685Z,15.30
2023-01-31T02:20:52.988Z,17.85
2023-01-31T02:26:23.479Z,17.08
2023-01-31T02:31:57.274Z,12.70
2023-01-31T02:43:57.343Z,18.40
2023-01-31T02:49:42.612Z,15.25
2023-01-31T02:55:26.747Z,15.60
2023-01-31T03:00:24.088Z,14.23
2023-01-31T03:05:21.659Z,13.73
2023-01-31T03:10:30.626Z,8.27
2023-01-31T03:15:56.121Z,13.35
2023-01-31T03:21:01.430Z,15.80
2023-01-31T03:25:59.202Z,18.50
2023-01-31T03:31:18.942Z,16.40
2023-01-31T03:36:27.040Z,10.35
2023-01-31T03:41:39.671Z,13.80
2023-01-31T03:47:14.595Z,11.13
2023-01-31T03:52:12.396Z,13.82
2023-01-31T03:57:22.126Z,18.33
2023-01-31T04:02:19.740Z,14.55
2023-01-31T04:07:17.966Z,14.07
2023-01-31T04:12:15.143Z,16.42
2023-01-31T04:17:12.017Z,16.17
2023-01-31T04:22:13.704Z,16.13
2023-01-31T04:27:10.311Z,17.75
2023-01-31T04:32:07.075Z,13.27
2023-01-31T04:37:03.726Z,11.73
2023-01-31T04:42:00.717Z,13.63
2023-01-31T04:51:53.661Z,15.82
2023-01-31T05:26:38.505Z,12.63
2023-01-31T05:32:45.867Z,13.15
2023-01-31T05:44:56.004Z,15.40
2023-01-31T05:49:53.014Z,11.10
2023-01-31T05:54:49.548Z,25.98
2023-01-31T05:59:48.680Z,17.65
2023-01-31T06:05:11.186Z,24.13
2023-01-31T06:15:55.485Z,18.13
2023-01-31T06:20:54.007Z,20.65
2023-01-31T06:25:52.093Z,19.08
2023-01-31T06:30:56.762Z,19.10
2023-01-31T06:35:53.442Z,17.60
2023-01-31T06:41:02.438Z,20.77
2023-01-31T06:46:06.639Z,17.45
2023-01-31T06:51:03.303Z,18.00
2023-01-31T06:55:59.812Z,15.25
2023-01-31T07:00:58.771Z,15.90
2023-01-31T07:05:56.413Z,20.48
2023-01-31T07:10:55.486Z,21.30
2023-01-31T07:15:57.510Z,18.38
2023-01-31T07:21:01.369Z,20.52
2023-01-31T07:25:57.848Z,20.88
2023-01-31T07:30:54.406Z,17.33
2023-01-31T07:35:52.443Z,17.65
2023-01-31T07:40:53.530Z,20.95
2023-01-31T07:45:50.636Z,18.13
2023-01-31T07:50:47.174Z,17.17
2023-01-31T07:55:47.673Z,17.52
2023-01-31T08:01:02.539Z,30.33
2023-01-31T08:06:12.357Z,18.17
2023-01-31T08:11:08.940Z,15.38
2023-01-31T08:21:40.576Z,25.77
2023-01-31T08:32:00.429Z,16.48
2023-01-31T08:37:13.538Z,19.52
2023-01-31T08:42:40.039Z,22.58
2023-01-31T08:47:37.230Z,20.00
2023-01-31T09:04:53.817Z,17.30
2023-01-31T09:10:58.151Z,18.50
2023-01-31T09:16:35.762Z,19.65
2023-01-31T09:28:35.222Z,19.75
2023-01-31T09:40:12.502Z,14.68
2023-01-31T09:46:52.198Z,18.60
2023-01-31T10:10:42.270Z,16.77
2023-01-31T10:16:56.902Z,15.57
2023-01-31T10:23:33.361Z,13.52
2023-01-31T10:40:55.624Z,9.73
2023-01-31T10:47:06.370Z,13.02
2023-01-31T10:52:43.916Z,12.73
2023-01-31T10:58:11.896Z,13.82
2023-01-31T11:09:49.769Z,14.27
2023-01-31T11:21:53.180Z,14.48
2023-01-31T11:27:45.286Z,12.52
2023-01-31T11:33:39.117Z,13.85
2023-01-31T12:41:24.455Z,9.18
2023-01-31T14:39:38.046Z,9.40
2023-01-31T14:44:55.227Z,9.48
2023-01-31T14:50:10.667Z,9.18
2023-01-31T14:55:28.657Z,14.27
2023-01-31T15:00:28.906Z,9.60
2023-01-31T15:05:31.180Z,13.23
2023-01-31T15:11:04.526Z,20.08
2023-01-31T15:16:15.859Z,16.67
2023-01-31T16:56:18.200Z,14.13
2023-01-31T21:02:43.822Z,29.30
2023-01-31T21:20:17.308Z,24.58
2023-01-31T21:57:35.611Z,22.25
2023-01-31T22:03:18.376Z,24.80
2023-01-31T22:15:12.812Z,25.98
2023-01-31T22:21:10.019Z,31.77
2023-01-31T22:32:30.881Z,28.08
2023-01-31T22:38:10.971Z,25.95
2023-01-31T23:06:09.521Z,23.63
2023-01-31T23:11:12.505Z,24.77
2023-01-31T23:34:12.084Z,24.08
2023-01-31T23:39:09.426Z,24.55
2023-01-31T23:44:15.566Z,21.48
2023-01-31T23:50:09.654Z,27.73
2023-01-31T23:55:07.112Z,28.77
